Time;durP1;ratioP1;P1;durP2;ratioP2;P2;SDS_P1;SDS_P2;PMS_P1;PMS_P2;Temp;Humidity;BMP_temperature;BMP_pressure;BME280_temperature;BME280_humidity;BME280_pressure;Samples;Min_cycle;Max_cycle;Signal;HPM_P1;HPM_P2
2022/04/13 00:00:04;;;;;;;9.43;5.55;;;19.50;69.80;;;;;;4993165;28;20023;-66
2022/04/13 00:02:30;;;;;;;8.98;5.57;;;19.50;69.90;;;;;;4993035;28;20130;-64
2022/04/13 00:04:55;;;;;;;13.02;5.95;;;19.50;70.10;;;;;;4996680;28;20066;-68
2022/04/13 00:07:22;;;;;;;10.57;5.20;;;19.40;70.10;;;;;;4997358;28;20026;-64
2022/04/13 00:09:48;;;;;;;10.40;5.60;;;19.40;70.20;;;;;;4997239;28;20098;-60
2022/04/13 00:12:13;;;;;;;9.40;5.65;;;19.40;70.30;;;;;;4997445;28;20114;-68
2022/04/13 00:14:39;;;;;;;9.38;5.47;;;19.40;70.50;;;;;;4996428;28;20504;-67
2022/04/13 00:17:04;;;;;;;8.25;5.03;;;19.40;70.60;;;;;;4997469;28;20046;-67
2022/04/13 00:19:30;;;;;;;11.27;5.60;;;19.40;70.70;;;;;;4997170;28;20080;-66
2022/04/13 00:21:56;;;;;;;11.23;5.50;;;19.40;70.60;;;;;;4996932;28;20119;-68
2022/04/13 00:24:22;;;;;;;9.80;6.00;;;19.40;70.60;;;;;;4991375;28;20085;-67
2022/04/13 00:26:48;;;;;;;9.93;6.15;;;19.30;70.70;;;;;;4981750;28;20475;-67
2022/04/13 00:29:13;;;;;;;11.25;6.25;;;19.40;70.80;;;;;;4977370;28;20022;-67
2022/04/13 00:31:39;;;;;;;12.13;6.50;;;19.30;70.70;;;;;;4977502;28;20033;-68
2022/04/13 00:34:05;;;;;;;8.90;5.63;;;19.30;70.80;;;;;;4988974;28;20030;-67
2022/04/13 00:36:31;;;;;;;8.25;6.28;;;19.30;71.00;;;;;;4997060;28;20026;-68
2022/04/13 00:38:56;;;;;;;12.50;7.10;;;19.30;71.30;;;;;;4996889;28;20026;-68
2022/04/13 00:41:22;;;;;;;11.57;5.70;;;19.30;71.40;;;;;;4997159;28;20045;-63
2022/04/13 00:44:05;;;;;;;8.77;6.40;;;19.20;71.50;;;;;;4996219;28;20545;-67
2022/04/13 00:46:31;;;;;;;12.85;6.30;;;19.30;71.30;;;;;;4996767;28;20089;-68
2022/04/13 00:48:58;;;;;;;8.63;5.80;;;19.20;71.70;;;;;;4996803;28;20057;-62
2022/04/13 00:51:24;;;;;;;12.82;6.65;;;19.20;71.70;;;;;;4996622;28;20449;-68
2022/04/13 00:53:51;;;;;;;12.25;6.68;;;19.10;71.70;;;;;;4996191;28;20031;-68
2022/04/13 00:56:23;;;;;;;11.85;6.68;;;19.20;71.80;;;;;;4996494;28;20522;-68
2022/04/13 00:58:55;;;;;;;13.02;6.70;;;19.10;71.90;;;;;;4996308;28;20038;-66
2022/04/13 01:01:25;;;;;;;14.23;6.82;;;19.10;71.80;;;;;;4996524;28;20022;-65
2022/04/13 01:03:52;;;;;;;15.27;7.05;;;19.10;71.70;;;;;;4996348;28;20357;-68
2022/04/13 01:06:19;;;;;;;12.50;7.20;;;19.10;71.90;;;;;;4996548;28;20049;-68
2022/04/13 01:08:50;;;;;;;15.70;7.38;;;19.10;71.90;;;;;;4996350;28;20030;-67
2022/04/13 01:11:16;;;;;;;10.63;7.13;;;19.10;71.90;;;;;;4996378;28;20097;-68
2022/04/13 01:13:42;;;;;;;15.70;7.20;;;19.10;72.20;;;;;;4995860;28;20105;-68
2022/04/13 01:16:08;;;;;;;10.82;6.93;;;19.00;72.20;;;;;;4994590;28;20441;-68
2022/04/13 01:18:34;;;;;;;10.75;6.43;;;19.10;72.50;;;;;;4996263;28;20084;-68
2022/04/13 01:21:00;;;;;;;10.38;6.55;;;19.00;72.60;;;;;;4996149;28;20046;-63
2022/04/13 01:23:27;;;;;;;14.43;7.10;;;19.00;72.70;;;;;;4996056;28;20027;-68
2022/04/13 01:25:55;;;;;;;12.27;6.65;;;19.00;72.80;;;;;;4978469;28;20035;-68
2022/04/13 01:28:21;;;;;;;17.48;7.50;;;19.00;72.80;;;;;;4995500;28;20515;-61
2022/04/13 01:30:47;;;;;;;13.35;7.45;;;19.00;72.80;;;;;;4977214;28;20041;-56
2022/04/13 01:33:13;;;;;;;12.85;7.30;;;19.00;73.00;;;;;;4995902;28;20030;-68
2022/04/13 01:35:39;;;;;;;16.65;7.22;;;18.90;73.20;;;;;;4996064;28;20022;-67
2022/04/13 01:38:06;;;;;;;14.82;7.40;;;18.90;73.30;;;;;;4995555;28;20533;-60
2022/04/13 01:40:32;;;;;;;13.38;7.68;;;18.90;73.30;;;;;;4994935;28;20097;-63
2022/04/13 01:42:57;;;;;;;13.23;7.63;;;18.90;73.30;;;;;;4995627;28;20073;-65
2022/04/13 01:45:23;;;;;;;16.73;7.82;;;18.90;73.40;;;;;;4995588;28;20361;-67
2022/04/13 01:47:52;;;;;;;11.05;7.10;;;18.80;73.40;;;;;;4995661;28;20022;-61
2022/04/13 01:50:19;;;;;;;8.80;7.13;;;18.90;73.50;;;;;;4994904;28;20026;-64
2022/04/13 01:52:46;;;;;;;13.80;7.78;;;18.90;73.60;;;;;;4995396;28;20030;-68
2022/04/13 01:55:12;;;;;;;14.23;7.85;;;18.80;73.60;;;;;;4995637;28;20034;-67
2022/04/13 01:57:39;;;;;;;9.85;6.40;;;18.80;73.60;;;;;;4995281;28;20034;-68
2022/04/13 02:00:06;;;;;;;9.32;6.82;;;18.80;73.80;;;;;;4994888;28;20026;-56
2022/04/13 02:02:32;;;;;;;13.00;7.32;;;18.80;73.90;;;;;;4995144;28;20038;-57
2022/04/13 02:04:58;;;;;;;9.95;6.85;;;18.80;73.90;;;;;;4995624;28;20022;-66
2022/04/13 02:07:23;;;;;;;11.20;6.72;;;18.80;74.00;;;;;;4995323;28;20105;-68
2022/04/13 02:09:49;;;;;;;14.68;7.20;;;18.80;74.10;;;;;;4994966;28;20423;-65
2022/04/13 02:12:14;;;;;;;12.98;7.55;;;18.70;74.00;;;;;;4994404;28;20112;-66
2022/04/13 02:14:40;;;;;;;14.40;7.25;;;18.70;74.00;;;;;;4995440;28;20129;-70
2022/04/13 02:17:05;;;;;;;11.43;7.28;;;18.70;74.20;;;;;;4994850;28;20129;-67
2022/04/13 02:19:31;;;;;;;11.88;7.80;;;18.70;74.30;;;;;;4995131;28;20085;-68
2022/04/13 02:21:57;;;;;;;11.10;7.03;;;18.70;74.50;;;;;;4994251;28;20100;-65
2022/04/13 02:24:22;;;;;;;14.45;7.82;;;18.70;74.60;;;;;;4994900;28;20057;-68
2022/04/13 02:26:48;;;;;;;9.80;7.05;;;18.70;74.70;;;;;;4994931;28;20026;-66
2022/04/13 02:29:14;;;;;;;15.32;8.10;;;18.70;74.80;;;;;;4994753;28;20023;-67
2022/04/13 02:31:40;;;;;;;13.30;6.85;;;18.70;74.70;;;;;;4994521;28;20022;-64
2022/04/13 02:34:05;;;;;;;12.75;8.05;;;18.60;74.70;;;;;;4994504;28;20033;-68
2022/04/13 02:36:31;;;;;;;18.02;8.00;;;18.60;74.70;;;;;;4994735;28;20460;-68
2022/04/13 02:38:57;;;;;;;15.88;8.90;;;18.60;74.80;;;;;;4994674;28;20025;-68
2022/04/13 02:41:23;;;;;;;13.85;8.85;;;18.60;74.90;;;;;;4994478;28;20052;-67
2022/04/13 02:43:48;;;;;;;13.88;9.90;;;18.60;74.90;;;;;;4994697;28;20037;-68
2022/04/13 02:46:14;;;;;;;13.05;8.52;;;18.60;74.90;;;;;;4994697;28;20034;-68
2022/04/13 02:48:39;;;;;;;13.80;8.45;;;18.60;75.00;;;;;;4994486;28;20030;-67
2022/04/13 02:51:05;;;;;;;15.13;9.45;;;18.60;75.00;;;;;;4994208;28;20464;-65
2022/04/13 02:53:31;;;;;;;16.13;9.65;;;18.60;75.00;;;;;;4994326;28;20030;-68
2022/04/13 02:55:57;;;;;;;14.13;10.00;;;18.60;75.10;;;;;;4994656;28;20096;-68
2022/04/13 02:58:23;;;;;;;14.75;9.63;;;18.50;75.80;;;;;;4994403;28;20033;-68
2022/04/13 03:00:48;;;;;;;16.85;10.32;;;18.50;75.30;;;;;;4993885;28;20026;-67
2022/04/13 03:03:14;;;;;;;16.77;10.10;;;18.50;75.20;;;;;;4994274;28;20033;-68
2022/04/13 03:05:40;;;;;;;14.38;9.95;;;18.50;75.30;;;;;;4994434;28;20022;-67
2022/04/13 03:08:06;;;;;;;15.90;9.98;;;18.50;75.30;;;;;;4993830;28;20022;-68
2022/04/13 03:10:31;;;;;;;17.23;10.85;;;18.50;75.40;;;;;;4994089;28;20037;-67
2022/04/13 03:12:57;;;;;;;15.15;10.65;;;18.40;75.40;;;;;;4994358;28;20030;-68
2022/04/13 03:15:23;;;;;;;13.95;10.40;;;18.50;75.50;;;;;;4994052;28;20023;-68
2022/04/13 03:17:50;;;;;;;12.98;9.73;;;18.40;75.40;;;;;;4994030;28;20081;-65
2022/04/13 03:20:16;;;;;;;14.05;9.95;;;18.40;75.40;;;;;;4993366;28;20030;-68
2022/04/13 03:22:41;;;;;;;17.20;10.15;;;18.40;75.50;;;;;;4993519;28;20046;-61
2022/04/13 03:25:07;;;;;;;14.32;9.60;;;18.40;75.50;;;;;;4993853;28;20018;-68
2022/04/13 03:27:33;;;;;;;17.55;10.40;;;18.40;75.50;;;;;;4994054;28;20396;-68
2022/04/13 03:29:58;;;;;;;13.63;10.00;;;18.40;75.60;;;;;;4993630;28;20101;-67
2022/04/13 03:32:24;;;;;;;15.68;10.73;;;18.40;75.60;;;;;;4993021;28;20022;-67
2022/04/13 03:34:49;;;;;;;14.82;10.40;;;18.40;75.60;;;;;;4993781;28;20502;-67
2022/04/13 03:37:15;;;;;;;13.88;9.55;;;18.40;75.70;;;;;;4993516;28;20037;-68
2022/04/13 03:39:41;;;;;;;12.55;9.45;;;18.30;75.70;;;;;;4993274;28;20026;-63
2022/04/13 03:42:07;;;;;;;13.80;10.18;;;18.30;75.80;;;;;;4992758;28;20117;-59
2022/04/13 03:44:32;;;;;;;18.08;11.20;;;18.30;75.70;;;;;;4993751;28;20015;-68
2022/04/13 03:46:58;;;;;;;13.07;10.20;;;18.30;75.80;;;;;;4993516;28;20037;-56
2022/04/13 03:49:24;;;;;;;16.20;10.50;;;18.30;75.80;;;;;;4993615;28;20037;-67
2022/04/13 03:51:49;;;;;;;14.60;10.20;;;18.30;75.90;;;;;;4993275;28;20137;-68
2022/04/13 03:54:15;;;;;;;11.93;9.63;;;18.30;75.80;;;;;;4993196;28;20396;-68
2022/04/13 03:56:41;;;;;;;12.45;10.35;;;18.20;75.80;;;;;;4993738;28;20481;-68
2022/04/13 03:59:07;;;;;;;14.70;10.38;;;18.30;76.00;;;;;;4993550;28;20022;-66
2022/04/13 04:01:33;;;;;;;11.48;10.15;;;18.20;75.90;;;;;;4993056;28;20041;-67
2022/04/13 04:03:59;;;;;;;13.95;10.68;;;18.20;76.00;;;;;;4993618;28;20022;-68
2022/04/13 04:06:24;;;;;;;14.45;10.63;;;18.20;76.10;;;;;;4993054;28;20038;-68
2022/04/13 04:08:50;;;;;;;17.08;10.30;;;18.20;76.10;;;;;;4993624;28;20105;-68
2022/04/13 04:11:16;;;;;;;17.33;10.50;;;18.20;76.20;;;;;;4992333;28;20022;-65
2022/04/13 04:13:42;;;;;;;14.80;10.57;;;18.20;76.30;;;;;;4993406;28;20030;-67
2022/04/13 04:16:07;;;;;;;15.65;10.77;;;18.10;76.20;;;;;;4993791;28;20038;-68
2022/04/13 04:18:33;;;;;;;15.70;11.35;;;18.10;76.30;;;;;;4993316;28;20087;-67
2022/04/13 04:20:58;;;;;;;13.35;10.23;;;18.10;76.30;;;;;;4993228;28;20019;-67
2022/04/13 04:23:24;;;;;;;18.67;11.23;;;18.10;76.30;;;;;;4993244;28;20619;-68
2022/04/13 04:25:49;;;;;;;13.05;10.30;;;18.00;76.40;;;;;;4993409;28;20468;-67
2022/04/13 04:28:16;;;;;;;14.65;10.75;;;18.00;76.50;;;;;;4993381;28;20146;-68
2022/04/13 04:30:42;;;;;;;17.75;11.63;;;18.00;76.50;;;;;;4993187;28;20050;-68
2022/04/13 04:33:12;;;;;;;22.65;11.20;;;18.00;76.50;;;;;;4992908;28;20081;-65
2022/04/13 04:35:39;;;;;;;13.60;11.65;;;18.00;76.60;;;;;;4992965;28;20386;-66
2022/04/13 04:38:04;;;;;;;14.73;11.48;;;18.00;76.60;;;;;;4993219;28;20026;-62
2022/04/13 04:40:30;;;;;;;13.25;11.75;;;18.00;76.60;;;;;;4993368;28;20464;-68
2022/04/13 04:42:55;;;;;;;15.10;11.93;;;18.00;76.70;;;;;;4992871;28;20078;-67
2022/04/13 04:45:21;;;;;;;14.00;11.07;;;18.00;76.70;;;;;;4992997;28;20019;-68
2022/04/13 04:47:50;;;;;;;13.60;11.60;;;17.90;76.80;;;;;;4993487;28;20442;-67
2022/04/13 04:50:17;;;;;;;14.55;11.95;;;17.90;76.70;;;;;;4994677;28;20022;-68
2022/04/13 04:52:44;;;;;;;13.30;10.77;;;17.90;76.80;;;;;;4996160;28;20039;-68
2022/04/13 04:55:11;;;;;;;17.75;11.38;;;17.90;76.80;;;;;;4996625;28;20022;-68
2022/04/13 04:57:36;;;;;;;14.18;11.52;;;17.90;76.90;;;;;;4996706;28;20480;-68
2022/04/13 05:00:05;;;;;;;18.67;11.65;;;17.90;76.90;;;;;;4996592;28;20058;-65
2022/04/13 05:02:31;;;;;;;15.65;11.38;;;17.90;77.00;;;;;;4988908;28;20042;-66
2022/04/13 05:04:56;;;;;;;20.13;12.23;;;17.80;77.00;;;;;;4994960;28;20388;-64
2022/04/13 05:07:22;;;;;;;17.40;11.68;;;17.80;77.10;;;;;;4994407;28;20479;-67
2022/04/13 05:09:47;;;;;;;20.20;11.80;;;17.80;77.20;;;;;;4996329;28;20022;-66
2022/04/13 05:12:13;;;;;;;15.30;11.63;;;17.80;77.30;;;;;;4995988;28;20045;-67
2022/04/13 05:14:39;;;;;;;19.25;12.85;;;17.80;77.40;;;;;;4995994;28;20026;-68
2022/04/13 05:17:04;;;;;;;17.95;12.90;;;17.80;77.50;;;;;;4996466;28;20033;-64
2022/04/13 05:19:34;;;;;;;24.00;12.65;;;17.80;77.70;;;;;;4995455;28;20066;-61
2022/04/13 05:22:00;;;;;;;18.45;12.05;;;17.70;77.70;;;;;;4996261;28;20089;-64
2022/04/13 05:24:31;;;;;;;15.18;12.02;;;17.80;77.90;;;;;;4978603;28;20041;-58
2022/04/13 05:26:57;;;;;;;20.80;13.53;;;17.70;77.90;;;;;;4979107;28;20026;-64
2022/04/13 05:29:26;;;;;;;19.88;13.52;;;17.70;78.00;;;;;;4995538;28;20029;-57
2022/04/13 05:31:51;;;;;;;17.35;12.95;;;17.70;78.10;;;;;;4978129;28;20022;-68
2022/04/13 05:34:26;;;;;;;14.30;12.63;;;17.70;78.20;;;;;;4995733;28;20022;-62
2022/04/13 05:36:54;;;;;;;22.55;12.18;;;17.70;78.40;;;;;;4978416;28;20032;-67
2022/04/13 05:39:19;;;;;;;16.60;12.38;;;17.60;78.30;;;;;;4995273;28;20030;-66
2022/04/13 05:41:48;;;;;;;19.83;12.82;;;17.60;78.50;;;;;;4995640;28;20114;-69
2022/04/13 05:44:19;;;;;;;20.45;13.32;;;17.70;78.60;;;;;;4978591;28;20040;-63
2022/04/13 05:46:45;;;;;;;20.67;13.77;;;17.70;78.60;;;;;;4978149;28;20431;-66
2022/04/13 05:49:11;;;;;;;21.25;12.65;;;17.60;78.70;;;;;;4977284;28;20446;-62
2022/04/13 05:51:37;;;;;;;19.65;11.93;;;17.60;78.70;;;;;;4996019;28;20033;-69
2022/04/13 05:54:03;;;;;;;22.73;12.45;;;17.60;78.90;;;;;;4978703;28;20068;-70
2022/04/13 05:56:29;;;;;;;19.25;12.27;;;17.60;79.00;;;;;;4995542;28;20069;-68
2022/04/13 05:58:55;;;;;;;17.17;13.23;;;17.60;79.00;;;;;;4977824;28;20026;-62
2022/04/13 06:01:20;;;;;;;20.35;12.35;;;17.60;79.00;;;;;;4994867;28;20034;-67
2022/04/13 06:03:46;;;;;;;16.88;12.68;;;17.60;79.10;;;;;;4995098;28;20101;-59
2022/04/13 06:06:12;;;;;;;18.55;12.25;;;17.60;79.30;;;;;;4978418;28;20117;-61
2022/04/13 06:08:38;;;;;;;15.43;11.63;;;17.60;79.30;;;;;;4977161;28;20102;-61
2022/04/13 06:11:04;;;;;;;18.95;12.35;;;17.60;79.40;;;;;;4995657;28;20037;-67
2022/04/13 06:13:31;;;;;;;20.63;12.13;;;17.60;79.60;;;;;;4995615;28;20112;-67
2022/04/13 06:15:57;;;;;;;17.45;11.35;;;17.60;79.40;;;;;;4995549;28;20018;-67
2022/04/13 06:18:25;;;;;;;21.10;11.43;;;17.60;79.60;;;;;;4994478;28;20030;-60
2022/04/13 06:20:51;;;;;;;16.58;11.38;;;17.60;79.40;;;;;;4995178;28;20034;-69
2022/04/13 06:23:22;;;;;;;17.73;11.23;;;17.60;79.50;;;;;;4995047;28;20045;-68
2022/04/13 06:25:51;;;;;;;19.02;11.40;;;17.60;79.40;;;;;;4995148;28;20438;-62
2022/04/13 06:28:17;;;;;;;15.88;11.70;;;17.60;79.60;;;;;;4961373;28;20026;-65
2022/04/13 06:30:45;;;;;;;16.90;11.85;;;17.60;79.60;;;;;;4977770;28;20530;-68
2022/04/13 06:33:11;;;;;;;17.63;11.77;;;17.60;79.80;;;;;;4994734;28;20109;-68
2022/04/13 06:35:36;;;;;;;17.67;11.38;;;17.60;79.80;;;;;;4995149;28;20539;-66
2022/04/13 06:38:09;;;;;;;16.88;11.60;;;17.60;79.90;;;;;;4994675;28;20097;-67
2022/04/13 06:40:34;;;;;;;17.15;11.63;;;17.60;80.10;;;;;;4994621;28;20030;-69
2022/04/13 06:43:00;;;;;;;15.18;11.05;;;17.60;80.10;;;;;;4995014;28;20031;-67
2022/04/13 06:45:25;;;;;;;17.73;12.20;;;17.60;80.10;;;;;;4994266;28;20030;-68
2022/04/13 06:47:51;;;;;;;17.13;11.68;;;17.60;80.30;;;;;;4976935;28;20029;-66
2022/04/13 06:50:17;;;;;;;22.20;11.35;;;17.60;80.40;;;;;;4994165;28;20476;-66
2022/04/13 06:52:44;;;;;;;17.27;10.88;;;17.60;80.60;;;;;;4994324;28;20030;-66
2022/04/13 06:55:10;;;;;;;15.93;10.85;;;17.60;80.50;;;;;;4994972;28;20029;-65
2022/04/13 06:57:39;;;;;;;14.25;10.60;;;17.60;80.50;;;;;;4994561;28;20487;-64
2022/04/13 07:00:10;;;;;;;17.58;10.65;;;17.60;80.70;;;;;;4976387;28;20034;-65
2022/04/13 07:02:36;;;;;;;15.85;11.20;;;17.60;80.60;;;;;;4994215;28;20034;-66
2022/04/13 07:05:03;;;;;;;13.95;10.05;;;17.60;80.80;;;;;;4994324;28;20025;-62
2022/04/13 07:07:29;;;;;;;17.20;10.70;;;17.60;80.90;;;;;;4994308;28;20057;-61
2022/04/13 07:09:55;;;;;;;16.20;10.02;;;17.60;81.00;;;;;;4993128;28;20492;-61
2022/04/13 07:12:21;;;;;;;21.13;11.45;;;17.60;80.90;;;;;;4993997;28;20036;-66
2022/04/13 07:14:47;;;;;;;16.67;9.63;;;17.60;81.10;;;;;;4994180;28;20030;-60
2022/04/13 07:17:13;;;;;;;20.38;11.15;;;17.60;81.10;;;;;;4994067;28;20121;-61
2022/04/13 07:19:38;;;;;;;17.95;9.98;;;17.70;81.50;;;;;;4993098;28;20117;-65
2022/04/13 07:22:05;;;;;;;15.25;10.27;;;17.70;81.40;;;;;;4992298;28;20042;-62
2022/04/13 07:24:30;;;;;;;16.75;10.82;;;17.70;81.60;;;;;;4994029;28;20069;-64
2022/04/13 07:26:57;;;;;;;11.63;9.60;;;17.70;81.70;;;;;;4993951;28;20026;-64
2022/04/13 07:29:22;;;;;;;14.88;9.48;;;17.70;81.70;;;;;;4993499;28;20105;-65
2022/04/13 07:31:52;;;;;;;19.70;9.55;;;17.70;81.70;;;;;;4993892;28;20105;-66
2022/04/13 07:34:17;;;;;;;13.05;8.90;;;17.70;81.80;;;;;;4993937;28;20460;-63
2022/04/13 07:36:43;;;;;;;14.52;10.25;;;17.70;82.00;;;;;;4993694;28;20076;-66
2022/04/13 07:39:08;;;;;;;16.50;10.82;;;17.70;82.10;;;;;;4993870;28;20027;-65
2022/04/13 07:41:34;;;;;;;16.85;10.70;;;17.70;82.10;;;;;;4993817;28;20106;-64
2022/04/13 07:44:00;;;;;;;18.67;10.98;;;17.70;82.10;;;;;;4993588;28;20399;-65
2022/04/13 07:46:27;;;;;;;13.52;10.00;;;17.80;82.20;;;;;;4993771;28;20399;-65
2022/04/13 07:48:53;;;;;;;14.80;10.68;;;17.80;82.30;;;;;;4993568;28;20058;-65
2022/04/13 07:51:19;;;;;;;15.32;9.98;;;17.70;82.20;;;;;;4993917;28;20038;-62
2022/04/13 07:53:45;;;;;;;16.38;10.20;;;17.80;82.20;;;;;;4993602;28;20084;-65
2022/04/13 07:56:11;;;;;;;13.80;9.45;;;17.80;82.30;;;;;;4993750;28;20030;-65
2022/04/13 07:58:36;;;;;;;17.17;10.88;;;17.80;82.20;;;;;;4993451;28;20022;-65
2022/04/13 08:01:02;;;;;;;16.20;11.27;;;17.80;82.30;;;;;;4993542;28;20034;-65
2022/04/13 08:03:27;;;;;;;14.85;9.43;;;17.80;82.50;;;;;;4993572;28;20041;-65
2022/04/13 08:05:53;;;;;;;20.05;10.65;;;17.80;82.40;;;;;;4993506;28;20089;-62
2022/04/13 08:08:18;;;;;;;15.50;10.07;;;17.80;82.50;;;;;;4993503;28;20101;-65
2022/04/13 08:10:45;;;;;;;18.05;10.00;;;17.90;82.70;;;;;;4993385;28;20046;-64
2022/04/13 08:13:11;;;;;;;12.80;9.90;;;17.90;82.70;;;;;;4993432;28;20026;-65
2022/04/13 08:15:37;;;;;;;15.20;9.45;;;17.80;82.90;;;;;;4975971;28;20038;-65
2022/04/13 08:18:03;;;;;;;11.07;9.38;;;17.90;82.80;;;;;;4993372;28;20026;-64
2022/04/13 08:20:28;;;;;;;12.93;10.23;;;17.90;82.90;;;;;;4993316;28;20038;-65
2022/04/13 08:22:54;;;;;;;17.58;10.07;;;17.90;83.00;;;;;;4993405;28;20484;-65
2022/04/13 08:25:19;;;;;;;13.18;10.20;;;17.90;82.80;;;;;;4995584;28;20524;-65
2022/04/13 08:27:45;;;;;;;14.52;10.52;;;17.90;83.00;;;;;;4996851;28;20034;-65
2022/04/13 08:30:12;;;;;;;13.85;8.98;;;17.90;83.10;;;;;;4997191;28;20018;-65
2022/04/13 08:32:39;;;;;;;16.27;10.20;;;18.00;83.10;;;;;;4997041;28;20029;-65
2022/04/13 08:35:05;;;;;;;13.30;10.02;;;18.00;83.10;;;;;;4997130;28;20485;-65
2022/04/13 08:37:32;;;;;;;17.23;10.40;;;18.00;83.10;;;;;;4996985;28;20495;-66
2022/04/13 08:39:58;;;;;;;13.85;9.95;;;18.00;83.00;;;;;;4979554;28;20023;-65
2022/04/13 08:42:47;;;;;;;16.65;10.13;;;18.00;83.00;;;;;;4996715;28;20038;-63
2022/04/13 08:45:22;;;;;;;17.50;11.35;;;18.00;82.90;;;;;;4996872;28;20029;-65
2022/04/13 08:47:49;;;;;;;18.92;10.77;;;18.00;83.10;;;;;;4997025;28;20031;-64
2022/04/13 08:50:17;;;;;;;17.52;10.68;;;18.10;83.30;;;;;;4996714;28;20030;-65
2022/04/13 08:52:49;;;;;;;17.73;11.00;;;18.10;83.20;;;;;;4996990;28;20128;-63
2022/04/13 08:55:16;;;;;;;20.15;11.05;;;18.10;83.20;;;;;;4996716;28;20018;-65
2022/04/13 08:57:50;;;;;;;18.05;12.05;;;18.10;83.20;;;;;;4996101;28;20026;-64
2022/04/13 09:00:18;;;;;;;15.35;10.70;;;18.10;83.40;;;;;;4996700;28;20023;-65
2022/04/13 09:02:53;;;;;;;17.48;11.10;;;18.10;83.10;;;;;;4996489;28;20034;-65
2022/04/13 09:05:33;;;;;;;20.52;11.20;;;18.10;83.00;;;;;;4996581;28;20113;-65
2022/04/13 09:08:19;;;;;;;17.38;12.02;;;18.20;83.20;;;;;;4996538;28;20028;-65
2022/04/13 09:10:48;;;;;;;20.45;11.98;;;18.20;83.00;;;;;;4996123;28;20050;-67
2022/04/13 09:13:15;;;;;;;24.42;12.68;;;18.20;83.20;;;;;;4996433;28;20384;-65
2022/04/13 09:15:42;;;;;;;18.25;14.25;;;18.20;83.20;;;;;;4996516;28;20026;-64
2022/04/13 09:18:08;;;;;;;22.27;14.90;;;18.20;83.80;;;;;;4996238;28;20030;-66
2022/04/13 09:20:35;;;;;;;24.50;16.60;;;18.30;83.50;;;;;;4996100;28;20117;-65
2022/04/13 09:23:01;;;;;;;30.80;20.60;;;18.20;83.30;;;;;;4996211;28;20030;-64
2022/04/13 09:25:29;;;;;;;29.90;21.48;;;18.20;83.40;;;;;;4996169;28;20014;-65
2022/04/13 09:27:57;;;;;;;26.10;17.70;;;18.30;83.40;;;;;;4996044;28;20031;-64
2022/04/13 09:30:23;;;;;;;22.65;15.20;;;18.30;83.50;;;;;;4996220;28;20018;-65
2022/04/13 09:32:50;;;;;;;22.30;14.55;;;18.30;83.50;;;;;;4995723;28;20026;-65
2022/04/13 09:35:16;;;;;;;19.38;14.07;;;18.30;83.60;;;;;;4995965;28;20026;-65
2022/04/13 09:37:42;;;;;;;18.08;12.77;;;18.40;83.70;;;;;;4994954;28;20023;-65
2022/04/13 09:40:09;;;;;;;21.55;14.35;;;18.40;83.30;;;;;;4995849;28;20029;-65
2022/04/13 09:42:36;;;;;;;20.50;14.35;;;18.40;83.40;;;;;;4995752;28;20030;-64
2022/04/13 09:45:02;;;;;;;21.25;15.02;;;18.40;83.10;;;;;;4995977;28;20015;-66
2022/04/13 09:47:33;;;;;;;20.42;13.95;;;18.40;83.30;;;;;;4995991;28;20468;-65
2022/04/13 09:49:59;;;;;;;25.98;14.98;;;18.40;83.10;;;;;;4995863;28;20110;-65
2022/04/13 09:52:41;;;;;;;25.13;15.55;;;18.40;83.40;;;;;;4995641;28;20036;-65
2022/04/13 09:55:08;;;;;;;;;;;18.50;83.10;;;;;;4995820;28;20526;-65
2022/04/13 09:57:34;;;;;;;19.65;12.90;;;18.40;82.90;;;;;;4995623;28;19906;-66
2022/04/13 10:00:05;;;;;;;18.55;13.57;;;18.40;83.60;;;;;;4995657;28;20045;-66
2022/04/13 10:02:41;;;;;;;20.05;13.15;;;18.50;83.90;;;;;;4995326;28;20038;-67
2022/04/13 10:05:20;;;;;;;21.25;14.50;;;18.50;83.90;;;;;;4995485;28;20072;-66
2022/04/13 10:08:01;;;;;;;18.33;13.10;;;18.50;83.90;;;;;;4995156;28;20480;-66
2022/04/13 10:10:28;;;;;;;16.05;12.90;;;18.60;84.00;;;;;;4995231;28;20080;-66
2022/04/13 10:12:53;;;;;;;19.85;12.70;;;18.60;84.60;;;;;;4995135;28;20045;-65
2022/04/13 10:15:19;;;;;;;18.00;12.55;;;18.60;84.60;;;;;;4995288;28;20034;-64
2022/04/13 10:17:45;;;;;;;15.95;12.32;;;18.60;84.80;;;;;;4995095;28;20191;-66
2022/04/13 10:20:11;;;;;;;17.92;12.65;;;18.60;84.80;;;;;;4995227;28;20035;-66
2022/04/13 10:23:02;;;;;;;15.45;13.85;;;18.70;85.00;;;;;;4995153;28;20395;-61
2022/04/13 10:25:28;;;;;;;17.40;14.20;;;18.70;84.60;;;;;;4977823;28;20026;-65
2022/04/13 10:27:59;;;;;;;16.98;14.10;;;18.70;85.10;;;;;;4994808;28;20026;-66
2022/04/13 10:30:30;;;;;;;18.33;13.68;;;18.70;85.30;;;;;;4995267;28;20030;-62
2022/04/13 10:33:05;;;;;;;16.17;14.33;;;18.70;85.20;;;;;;4994939;28;20472;-62
2022/04/13 10:35:36;;;;;;;18.70;13.45;;;18.60;85.30;;;;;;4994980;28;20472;-67
2022/04/13 10:38:03;;;;;;;19.70;14.40;;;18.80;85.50;;;;;;4977790;28;20037;-65
2022/04/13 10:40:34;;;;;;;17.50;15.25;;;18.80;85.80;;;;;;4995220;28;20037;-65
2022/04/13 10:43:03;;;;;;;19.67;15.93;;;18.80;85.60;;;;;;4994917;28;20038;-65
2022/04/13 10:45:30;;;;;;;21.23;15.98;;;18.80;85.90;;;;;;4994766;28;20081;-64
2022/04/13 10:48:09;;;;;;;20.42;15.63;;;18.80;86.00;;;;;;4994170;28;20117;-65
2022/04/13 10:50:49;;;;;;;20.88;16.05;;;18.80;85.80;;;;;;4994258;28;20046;-64
2022/04/13 10:53:25;;;;;;;18.40;14.90;;;18.80;85.90;;;;;;4993635;28;20014;-65
2022/04/13 10:56:01;;;;;;;20.50;15.00;;;18.80;86.00;;;;;;4994035;28;20045;-66
2022/04/13 10:58:55;;;;;;;22.65;16.55;;;18.80;86.10;;;;;;4994227;28;20447;-65
2022/04/13 11:01:25;;;;;;;24.13;17.90;;;18.90;86.20;;;;;;4994548;28;20030;-65
2022/04/13 11:03:52;;;;;;;20.60;15.98;;;18.90;86.80;;;;;;4993784;28;20041;-66
2022/04/13 11:06:17;;;;;;;20.20;18.13;;;18.90;86.90;;;;;;4994321;28;20026;-66
2022/04/13 11:09:07;;;;;;;18.80;16.88;;;18.90;86.90;;;;;;4994422;28;20388;-66
2022/04/13 11:11:35;;;;;;;19.45;17.45;;;18.90;86.40;;;;;;4994095;28;20106;-66
2022/04/13 11:14:00;;;;;;;22.05;18.15;;;18.90;86.70;;;;;;4994217;28;20033;-67
2022/04/13 11:16:29;;;;;;;25.83;18.63;;;18.90;86.90;;;;;;4994165;28;20022;-66
2022/04/13 11:19:00;;;;;;;21.85;17.65;;;19.00;86.90;;;;;;4993565;28;20384;-67
2022/04/13 11:21:28;;;;;;;21.92;18.00;;;19.00;86.70;;;;;;4993886;28;20030;-67
2022/04/13 11:23:54;;;;;;;24.92;18.77;;;19.00;86.90;;;;;;4994316;28;20042;-64
2022/04/13 11:26:35;;;;;;;20.42;17.88;;;19.00;87.10;;;;;;4989143;28;20030;-66
2022/04/13 11:29:09;;;;;;;24.42;19.23;;;19.00;87.00;;;;;;4986253;28;20030;-67
2022/04/13 11:32:00;;;;;;;22.35;19.08;;;19.00;87.30;;;;;;4992677;28;20121;-66
2022/04/13 11:34:30;;;;;;;18.23;15.80;;;19.00;86.80;;;;;;4981000;28;20031;-67
2022/04/13 11:37:00;;;;;;;16.67;14.88;;;19.00;86.70;;;;;;4976173;28;20395;-67
2022/04/13 11:39:53;;;;;;;16.80;12.95;;;19.10;86.50;;;;;;4994021;28;20073;-65
2022/04/13 11:42:27;;;;;;;20.05;17.90;;;19.10;85.90;;;;;;4992907;28;20049;-65
2022/04/13 11:44:59;;;;;;;20.60;18.50;;;19.10;86.60;;;;;;4994025;28;20031;-66
2022/04/13 11:47:34;;;;;;;;;;;19.10;87.00;;;;;;4994209;28;20035;-62
2022/04/13 11:50:03;;;;;;;18.15;11.40;;;19.10;86.10;;;;;;4993118;28;19933;-66
2022/04/13 11:53:05;;;;;;;16.42;14.20;;;19.10;86.20;;;;;;4993436;28;20022;-67
2022/04/13 11:55:40;;;;;;;19.20;16.08;;;19.10;85.90;;;;;;4990864;28;20085;-61
2022/04/13 11:58:08;;;;;;;19.52;15.93;;;19.20;86.30;;;;;;4988465;28;20456;-61
2022/04/13 12:01:11;;;;;;;18.75;15.88;;;19.20;86.70;;;;;;4979889;28;20023;-62
2022/04/13 12:03:41;;;;;;;20.92;15.32;;;19.20;86.20;;;;;;4973975;28;20053;-62
2022/04/13 12:06:15;;;;;;;17.02;15.23;;;19.20;86.50;;;;;;4973700;28;20023;-65
2022/04/13 12:09:08;;;;;;;18.85;14.82;;;19.20;86.70;;;;;;4974047;28;20472;-60
2022/04/13 12:11:46;;;;;;;19.50;13.13;;;19.30;86.30;;;;;;4970428;28;20035;-64
2022/04/13 12:14:26;;;;;;;16.33;13.93;;;19.30;86.70;;;;;;4974181;28;20057;-64
2022/04/13 12:16:55;;;;;;;14.68;12.93;;;19.30;86.50;;;;;;4973996;28;20027;-60
2022/04/13 12:19:21;;;;;;;14.68;10.73;;;19.30;86.70;;;;;;4974650;28;20035;-64
2022/04/13 12:21:46;;;;;;;12.48;11.20;;;19.30;86.90;;;;;;4992960;28;20101;-65
2022/04/13 12:24:12;;;;;;;13.85;11.00;;;19.30;86.30;;;;;;4991803;28;20423;-64
2022/04/13 12:26:46;;;;;;;8.68;6.53;;;19.30;86.10;;;;;;4993297;28;20113;-64
2022/04/13 12:29:19;;;;;;;11.70;7.97;;;19.40;85.40;;;;;;4982671;28;20018;-61
2022/04/13 12:31:51;;;;;;;12.88;11.13;;;19.40;85.20;;;;;;4973672;28;20027;-66
2022/04/13 12:34:17;;;;;;;21.45;9.00;;;19.40;85.40;;;;;;4973416;28;20049;-68